Time;durP1;ratioP1;P1;durP2;ratioP2;P2;SDS_P1;SDS_P2;PMS_P1;PMS_P2;Temp;Humidity;BMP_temperature;BMP_pressure;BME280_temperature;BME280_humidity;BME280_pressure;Samples;Min_cycle;Max_cycle;Signal;HPM_P1;HPM_P2
2022/10/03 00:01:40;;;;;;;29.83;16.42;;;;;;;14.12;75.11;99928.97;5218426;28;20438;-71
2022/10/03 00:04:41;;;;;;;32.50;17.25;;;;;;;13.99;75.24;99933.78;5206614;28;20523;-71
2022/10/03 00:07:49;;;;;;;30.85;16.20;;;;;;;13.91;75.57;99937.16;5203256;28;20135;-71
2022/10/03 00:10:56;;;;;;;33.60;16.25;;;;;;;14.15;75.21;99950.03;5203902;28;20061;-71
2022/10/03 00:13:52;;;;;;;30.67;16.35;;;;;;;14.09;74.66;99951.44;5210140;28;20084;-71
2022/10/03 00:16:54;;;;;;;37.17;17.17;;;;;;;14.03;75.70;99952.00;5208591;28;20135;-71
2022/10/03 00:19:59;;;;;;;39.78;16.83;;;;;;;14.03;74.98;99949.34;5206501;28;20041;-70
2022/10/03 00:23:03;;;;;;;33.38;16.00;;;;;;;14.12;75.28;99954.81;5206543;28;20052;-70
2022/10/03 00:26:31;;;;;;;35.03;16.10;;;;;;;14.17;74.65;99956.09;5200021;28;20515;-71
2022/10/03 00:29:24;;;;;;;38.72;17.02;;;;;;;14.21;73.97;99959.31;5202822;28;20056;-72
2022/10/03 00:32:42;;;;;;;32.50;16.70;;;;;;;14.19;74.88;99963.94;5207112;28;20048;-70
2022/10/03 00:36:03;;;;;;;35.63;17.77;;;;;;;14.15;75.30;99975.88;5206752;28;20527;-71
2022/10/03 00:39:15;;;;;;;38.13;17.45;;;;;;;14.26;74.61;99967.69;5204405;28;20151;-71
2022/10/03 00:42:24;;;;;;;34.47;16.80;;;;;;;14.23;74.13;99970.66;5202706;28;20517;-71
2022/10/03 00:45:49;;;;;;;34.63;17.20;;;;;;;14.13;74.84;99978.66;5203800;28;20052;-71
2022/10/03 00:49:21;;;;;;;32.67;16.67;;;;;;;14.10;74.44;99974.47;5194814;28;20076;-71
2022/10/03 00:52:14;;;;;;;31.67;16.70;;;;;;;14.23;74.64;99974.16;5203277;28;20049;-70
2022/10/03 00:55:20;;;;;;;31.67;15.85;;;;;;;14.23;74.74;99974.16;5210321;28;20055;-71
2022/10/03 00:58:22;;;;;;;31.55;15.63;;;;;;;14.21;74.23;99976.13;5190502;28;20060;-71
2022/10/03 01:01:27;;;;;;;31.95;16.42;;;;;;;14.21;73.81;99959.31;5204744;28;20553;-71
2022/10/03 01:04:32;;;;;;;37.22;15.95;;;;;;;14.20;74.52;99973.59;5206198;28;20420;-71
2022/10/03 01:07:42;;;;;;;30.08;16.35;;;;;;;14.15;74.28;99967.88;5201215;28;20052;-70
2022/10/03 01:10:32;;;;;;;32.65;16.65;;;;;;;14.08;76.12;99976.44;5204722;28;20443;-71
2022/10/03 01:13:22;;;;;;;35.70;17.52;;;;;;;14.21;74.90;99972.63;5206159;28;20060;-72
2022/10/03 01:16:30;;;;;;;34.47;16.33;;;;;;;14.20;74.75;99973.59;5203313;28;20079;-70
2022/10/03 01:19:42;;;;;;;31.58;15.45;;;;;;;14.21;74.40;99976.13;5204795;28;20135;-70
2022/10/03 01:22:50;;;;;;;35.38;16.08;;;;;;;14.14;74.69;99975.03;5204852;28;20053;-71
2022/10/03 01:26:18;;;;;;;32.15;15.93;;;;;;;14.21;74.84;99980.63;5196408;28;20055;-69
2022/10/03 01:32:37;;;;;;;34.20;16.52;;;;;;;14.26;74.53;99978.38;5201459;28;20056;-70
2022/10/03 01:36:01;;;;;;;32.20;16.55;;;;;;;14.25;74.26;99971.34;5201851;28;20068;-70
2022/10/03 01:38:59;;;;;;;32.30;15.63;;;;;;;14.22;74.42;99979.66;5200386;28;20558;-71
2022/10/03 01:41:58;;;;;;;32.17;16.10;;;;;;;14.20;74.60;99963.78;5200702;28;20056;-71
2022/10/03 01:45:06;;;;;;;27.05;14.10;;;;;;;14.35;74.42;99980.19;5204045;28;20175;-71
2022/10/03 01:48:20;;;;;;;25.23;14.57;;;;;;;14.09;74.93;99982.59;5204966;28;20151;-71
2022/10/03 01:51:18;;;;;;;29.23;15.20;;;;;;;14.10;75.16;99989.63;5203596;28;20057;-71
2022/10/03 01:54:19;;;;;;;29.40;14.23;;;;;;;14.05;75.73;99982.06;5203139;28;20060;-70
2022/10/03 01:57:18;;;;;;;25.50;14.27;;;;;;;14.21;75.22;99996.66;5200207;28;20657;-71
2022/10/03 02:00:14;;;;;;;35.88;15.35;;;;;;;14.24;74.44;99997.19;5201609;28;20064;-71
2022/10/03 02:03:10;;;;;;;30.08;14.32;;;;;;;14.30;74.45;100011.78;5206669;28;20637;-71
2022/10/03 02:06:09;;;;;;;27.92;14.52;;;;;;;14.32;73.99;100007.16;5208649;28;20496;-71
2022/10/03 02:09:27;;;;;;;23.90;13.18;;;;;;;14.25;73.89;100008.69;5201618;28;20428;-70
2022/10/03 02:12:21;;;;;;;24.85;13.82;;;;;;;14.19;74.54;100011.94;5195912;28;20155;-72
2022/10/03 02:15:23;;;;;;;29.20;13.40;;;;;;;14.26;74.62;100018.38;5207638;28;20053;-71
2022/10/03 02:18:33;;;;;;;24.50;13.45;;;;;;;14.27;74.30;100012.06;5211119;28;20496;-71
2022/10/03 02:21:31;;;;;;;25.67;13.40;;;;;;;14.05;74.04;100002.53;5200468;28;20052;-71
2022/10/03 02:24:27;;;;;;;23.08;12.48;;;;;;;14.05;74.87;100016.72;5202481;28;20045;-71
2022/10/03 02:27:46;;;;;;;24.60;13.30;;;;;;;14.16;74.21;100001.56;5201774;28;20076;-70
2022/10/03 02:31:02;;;;;;;23.90;12.65;;;;;;;14.16;74.25;100015.72;5201261;28;20675;-70
2022/10/03 02:34:20;;;;;;;22.08;13.15;;;;;;;14.21;73.85;100009.97;5200023;28;20129;-71
2022/10/03 02:37:45;;;;;;;27.88;13.45;;;;;;;14.19;73.85;100019.94;5216301;28;20248;-71
2022/10/03 02:41:00;;;;;;;27.30;12.85;;;;;;;14.10;74.21;100017.16;5204410;28;20064;-71
2022/10/03 02:44:36;;;;;;;27.27;12.98;;;;;;;13.97;74.25;100016.59;5202973;28;20634;-70
2022/10/03 02:47:41;;;;;;;26.65;12.05;;;;;;;14.05;73.42;100010.56;5187436;28;20511;-72
2022/10/03 02:50:46;;;;;;;29.55;12.50;;;;;;;13.78;74.17;100012.09;5198752;28;20508;-71
2022/10/03 02:53:42;;;;;;;;;;;;;;;13.99;74.33;100019.94;5200523;28;20408;-71
2022/10/03 02:56:47;;;;;;;19.38;11.88;;;;;;;13.92;74.43;100013.50;5203761;28;19944;-69
2022/10/03 02:59:55;;;;;;;;;;;;;;;13.90;74.43;100020.78;5203194;28;20132;-71
2022/10/03 03:02:48;;;;;;;25.80;13.35;;;;;;;13.78;75.30;100016.59;5200661;28;19921;-70
2022/10/03 03:06:09;;;;;;;22.17;13.38;;;;;;;14.00;74.62;100024.28;5210649;28;20045;-71
2022/10/03 03:09:33;;;;;;;23.73;13.50;;;;;;;13.45;76.52;100018.63;5206018;28;20052;-70
2022/10/03 03:12:54;;;;;;;28.77;14.67;;;;;;;13.67;75.97;100019.38;5199478;28;20046;-70
2022/10/03 03:16:21;;;;;;;25.73;13.50;;;;;;;13.92;74.12;100012.66;5205017;28;20068;-69
2022/10/03 03:19:33;;;;;;;31.50;13.73;;;;;;;13.71;73.96;100002.09;5177870;22;21445;-89
2022/10/03 03:22:45;;;;;;;27.75;14.50;;;;;;;13.81;74.91;100018.97;5175235;28;20065;-88
2022/10/03 03:25:58;;;;;;;26.75;13.25;;;;;;;13.75;74.74;100011.53;5167625;28;20061;-88
2022/10/03 03:28:58;;;;;;;30.23;14.70;;;;;;;13.76;74.60;100002.53;5140665;28;20050;-89
2022/10/03 03:32:13;;;;;;;29.60;15.80;;;;;;;13.97;73.58;100007.72;5136679;28;20159;-89
2022/10/03 03:35:06;;;;;;;25.38;13.32;;;;;;;13.76;74.87;100014.03;5167702;28;20050;-89
2022/10/03 03:38:27;;;;;;;28.90;14.75;;;;;;;13.63;75.23;100000.97;5153433;28;20053;-88
2022/10/03 03:41:27;;;;;;;29.80;15.90;;;;;;;13.56;74.78;99997.19;5167651;28;20405;-89
2022/10/03 03:44:57;;;;;;;31.67;15.50;;;;;;;13.08;74.47;99909.22;5169751;28;20053;-89
2022/10/03 03:48:07;;;;;;;29.70;14.63;;;;;;;13.77;74.02;100010.38;5134103;28;20098;-88
2022/10/03 03:51:34;;;;;;;35.05;15.07;;;;;;;13.70;74.62;100019.09;5148040;28;20050;-87
2022/10/03 03:54:34;;;;;;;29.50;13.68;;;;;;;13.81;73.58;100027.81;5148125;28;20518;-88
2022/10/03 03:58:01;;;;;;;31.52;14.48;;;;;;;13.73;73.49;100022.31;5152902;28;20056;-86
2022/10/03 04:01:14;;;;;;;30.35;14.68;;;;;;;13.77;73.98;100036.19;5146769;28;20046;-87
2022/10/03 04:04:28;;;;;;;31.40;14.77;;;;;;;13.67;74.34;100033.53;5156643;28;20058;-87
2022/10/03 04:07:39;;;;;;;28.65;15.13;;;;;;;13.36;74.50;99996.31;5151320;28;20104;-87
2022/10/03 04:11:00;;;;;;;29.05;14.93;;;;;;;13.75;74.56;100035.53;5162185;28;20090;-87
2022/10/03 04:14:07;;;;;;;28.55;14.50;;;;;;;13.54;74.63;100040.94;5175244;28;20046;-87
2022/10/03 04:20:56;;;;;;;32.08;14.57;;;;;;;13.70;74.27;100043.91;5175107;28;20050;-88
2022/10/03 04:23:59;;;;;;;29.70;14.05;;;;;;;13.65;74.40;100040.84;5155940;28;20089;-87
2022/10/03 04:27:03;;;;;;;33.13;15.43;;;;;;;13.72;74.61;100038.47;5165456;28;20052;-87
2022/10/03 04:30:17;;;;;;;29.73;14.80;;;;;;;13.81;73.62;100043.81;5159320;28;20061;-87
2022/10/03 04:33:10;;;;;;;30.13;14.70;;;;;;;13.65;74.31;100045.34;5174276;28;20050;-88
2022/10/03 04:36:19;;;;;;;36.63;15.85;;;;;;;13.61;74.64;100045.59;5155876;28;20050;-87
2022/10/03 04:39:24;;;;;;;30.80;15.00;;;;;;;13.49;74.53;100003.22;5150425;28;20057;-88
2022/10/03 04:42:28;;;;;;;33.42;14.82;;;;;;;13.38;74.97;99993.53;5148323;28;20077;-86
2022/10/03 04:45:41;;;;;;;30.35;14.68;;;;;;;13.70;74.64;100040.41;5151077;28;20080;-87
2022/10/03 04:48:44;;;;;;;31.35;15.23;;;;;;;13.60;75.05;100033.22;5157862;28;20496;-86
2022/10/03 04:51:50;;;;;;;31.30;15.00;;;;;;;13.70;74.64;100051.06;5157698;28;20111;-87
2022/10/03 04:55:16;;;;;;;30.95;14.10;;;;;;;13.64;74.45;100028.47;5140201;28;20050;-85
2022/10/03 04:58:33;;;;;;;35.95;16.05;;;;;;;13.55;76.11;100053.31;5155514;28;20061;-87
2022/10/03 05:01:32;;;;;;;36.40;15.73;;;;;;;13.44;76.19;100056.91;5166978;28;20432;-84
2022/10/03 05:04:26;;;;;;;38.85;16.70;;;;;;;13.68;74.95;100056.56;5145825;28;20046;-84
2022/10/03 05:07:41;;;;;;;43.65;16.48;;;;;;;13.76;74.79;100046.03;5150432;28;20054;-87
2022/10/03 05:10:52;;;;;;;40.88;16.27;;;;;;;13.72;73.98;100052.63;5156447;28;20062;-88
2022/10/03 05:14:02;;;;;;;34.75;16.92;;;;;;;13.73;74.10;100056.13;5168000;28;20538;-86
2022/10/03 05:17:10;;;;;;;34.67;15.60;;;;;;;13.68;73.94;100055.72;5155042;28;20488;-87
2022/10/03 05:20:24;;;;;;;31.95;16.27;;;;;;;13.47;73.91;100045.13;5169566;28;20053;-86
2022/10/03 05:23:18;;;;;;;35.75;16.30;;;;;;;13.63;74.13;100072.09;5154042;28;20535;-86
2022/10/03 05:26:18;;;;;;;40.67;16.63;;;;;;;13.68;73.87;100067.22;5167645;28;20057;-88
2022/10/03 05:30:01;;;;;;;34.28;15.80;;;;;;;13.28;73.64;100014.81;5161211;28;20077;-87
2022/10/03 05:33:00;;;;;;;34.80;16.55;;;;;;;13.55;73.37;100070.13;5161874;28;20519;-87
2022/10/03 05:36:26;;;;;;;35.17;16.05;;;;;;;13.13;74.63;100035.59;5144664;28;20046;-87
2022/10/03 05:39:35;;;;;;;35.38;15.45;;;;;;;13.34;75.08;100088.88;5163299;28;20050;-86
2022/10/03 05:42:34;;;;;;;36.50;15.93;;;;;;;13.12;74.92;100079.19;5149920;28;20046;-87
2022/10/03 05:45:31;;;;;;;32.20;15.27;;;;;;;13.09;75.65;100084.78;5180327;28;20053;-88
2022/10/03 05:48:36;;;;;;;35.00;15.95;;;;;;;13.25;73.93;100076.34;5171696;28;20093;-88
2022/10/03 05:52:02;;;;;;;35.55;16.73;;;;;;;13.31;74.12;100107.78;5163809;28;20060;-88
2022/10/03 05:55:21;;;;;;;42.08;16.23;;;;;;;13.47;73.19;100112.56;5162609;28;20516;-88
2022/10/03 05:58:29;;;;;;;38.60;16.67;;;;;;;13.56;73.70;100109.09;5152755;28;20057;-88
2022/10/03 06:01:42;;;;;;;34.47;17.65;;;;;;;13.62;73.79;100108.56;5171966;28;20044;-89
2022/10/03 06:04:52;;;;;;;36.22;17.42;;;;;;;13.27;73.02;100086.84;5164770;28;20122;-85
2022/10/03 06:07:45;;;;;;;35.17;16.83;;;;;;;13.61;72.40;100114.06;5172582;28;20065;-85
2022/10/03 06:10:49;;;;;;;46.22;18.60;;;;;;;13.28;72.76;100083.22;5158085;28;20061;-85
2022/10/03 06:14:15;;;;;;;39.22;17.42;;;;;;;13.44;73.15;100099.53;5159556;28;20057;-85
2022/10/03 06:17:39;;;;;;;35.55;17.10;;;;;;;13.31;74.11;100114.91;5150981;28;20578;-87
2022/10/03 06:20:59;;;;;;;35.75;15.90;;;;;;;13.33;73.46;100121.78;5162207;28;20661;-85
2022/10/03 06:23:57;;;;;;;36.90;16.92;;;;;;;13.23;72.71;100114.72;5172339;28;20506;-86
2022/10/03 06:27:24;;;;;;;29.58;15.80;;;;;;;13.39;73.38;100131.06;5160496;28;20208;-86
2022/10/03 06:30:21;;;;;;;42.53;17.25;;;;;;;13.47;73.41;100133.06;5149646;28;20143;-86
2022/10/03 06:33:52;;;;;;;41.00;17.25;;;;;;;13.39;73.61;100133.72;5151293;28;20125;-88
2022/10/03 06:37:10;;;;;;;34.10;17.20;;;;;;;13.43;73.20;100131.66;5151362;28;20093;-86
2022/10/03 06:40:03;;;;;;;36.58;17.50;;;;;;;13.61;73.01;100146.03;5163763;28;20057;-86
2022/10/03 06:43:02;;;;;;;38.60;17.55;;;;;;;13.62;72.09;100148.53;5157436;28;20163;-87
2022/10/03 06:46:23;;;;;;;45.70;18.08;;;;;;;13.70;72.50;100155.00;5153821;28;20184;-87
2022/10/03 06:49:16;;;;;;;34.55;16.70;;;;;;;13.74;72.37;100153.75;5176371;28;20061;-84
2022/10/03 06:52:16;;;;;;;34.05;17.05;;;;;;;13.70;72.63;100144.34;5167231;28;20179;-85
2022/10/03 06:55:28;;;;;;;37.90;17.30;;;;;;;13.81;72.63;100146.94;5171713;28;20489;-85
2022/10/03 06:58:27;;;;;;;39.45;18.08;;;;;;;13.94;72.48;100159.97;5155229;28;20052;-85
2022/10/03 07:01:49;;;;;;;47.47;19.67;;;;;;;13.74;72.42;100159.09;5181910;28;20471;-85
2022/10/03 07:04:58;;;;;;;38.17;18.08;;;;;;;14.04;72.44;100171.53;5156506;28;20504;-86
2022/10/03 07:08:18;;;;;;;38.40;17.40;;;;;;;13.90;72.13;100164.75;5152434;28;20065;-85
2022/10/03 07:11:46;;;;;;;36.58;16.40;;;;;;;14.36;70.04;100168.63;5147524;28;20068;-84
2022/10/03 07:14:58;;;;;;;34.95;17.25;;;;;;;14.36;71.44;100167.78;5158896;28;20712;-84
2022/10/03 07:18:07;;;;;;;34.85;15.35;;;;;;;14.28;70.90;100172.00;5154388;28;20046;-83
2022/10/03 07:21:01;;;;;;;30.98;14.95;;;;;;;14.95;69.17;100167.63;5178966;28;20045;-85
2022/10/03 07:24:12;;;;;;;36.20;16.15;;;;;;;15.85;65.73;100176.09;5150365;28;20061;-85
2022/10/03 07:27:16;;;;;;;32.92;13.70;;;;;;;15.85;65.63;100170.72;5170256;28;20077;-84
2022/10/03 07:30:15;;;;;;;28.45;13.32;;;;;;;16.27;64.66;100179.06;5164699;28;20104;-84
2022/10/03 07:33:53;;;;;;;30.52;12.93;;;;;;;15.63;66.96;100166.56;5156648;28;20424;-84
2022/10/03 07:40:17;;;;;;;25.98;11.05;;;;;;;15.33;66.53;100189.94;5164950;28;20184;-84
2022/10/03 07:43:34;;;;;;;23.30;10.60;;;;;;;15.18;65.49;100186.03;5171135;28;20073;-84
2022/10/03 07:46:37;;;;;;;24.58;10.88;;;;;;;15.23;65.65;100183.75;5171577;28;20049;-84
2022/10/03 07:49:51;;;;;;;25.30;11.23;;;;;;;15.06;67.19;100179.97;5165564;28;20058;-84
2022/10/03 07:53:26;;;;;;;22.48;10.65;;;;;;;14.57;68.49;100190.72;5158683;28;20062;-84
2022/10/03 07:56:33;;;;;;;35.57;12.03;;;;;;;14.94;67.26;100192.66;5138804;28;20046;-85
2022/10/03 07:59:44;;;;;;;23.65;11.63;;;;;;;14.73;66.92;100165.28;5152981;28;20057;-84
2022/10/03 08:02:59;;;;;;;27.40;12.18;;;;;;;14.83;67.94;100190.13;5167139;28;20042;-84
2022/10/03 08:06:05;;;;;;;25.10;11.90;;;;;;;14.68;68.41;100184.41;5162870;28;20173;-85
2022/10/03 08:09:46;;;;;;;27.77;11.73;;;;;;;14.70;67.51;100197.59;5167969;28;20126;-84
2022/10/03 08:13:01;;;;;;;30.00;11.35;;;;;;;14.70;67.40;100210.94;5167056;28;20108;-84
2022/10/03 08:15:57;;;;;;;28.80;11.40;;;;;;;14.34;68.69;100206.13;5180863;28;20046;-84
2022/10/03 08:18:48;;;;;;;21.92;10.68;;;;;;;14.37;68.04;100210.34;5171238;28;20065;-84
2022/10/03 08:21:54;;;;;;;27.98;11.32;;;;;;;14.43;68.54;100203.59;5170368;28;21641;-85
2022/10/03 08:25:16;;;;;;;22.42;10.68;;;;;;;14.87;66.64;100209.41;5165115;28;20313;-85
2022/10/03 08:28:40;;;;;;;23.48;10.70;;;;;;;15.00;67.11;100213.47;5160740;28;20061;-85
2022/10/03 08:31:46;;;;;;;23.67;10.35;;;;;;;14.76;66.10;100205.88;5176549;28;20046;-84
2022/10/03 08:35:06;;;;;;;27.92;11.93;;;;;;;14.65;68.22;100198.03;5166825;28;20184;-84
2022/10/03 08:38:18;;;;;;;34.83;11.55;;;;;;;15.13;66.99;100205.16;5153968;28;20073;-85
2022/10/03 08:41:27;;;;;;;25.00;11.07;;;;;;;15.12;67.25;100207.97;5174870;28;20076;-83
2022/10/03 08:44:39;;;;;;;19.10;9.38;;;;;;;14.75;65.85;100204.19;5163503;28;20050;-84
2022/10/03 08:47:54;;;;;;;19.58;9.05;;;;;;;15.07;65.93;100213.75;5163813;28;20054;-81
2022/10/03 08:51:05;;;;;;;29.42;10.80;;;;;;;15.10;65.65;100212.59;5156324;28;20054;-84
2022/10/03 08:54:31;;;;;;;21.35;10.15;;;;;;;15.28;65.57;100211.72;5177329;28;20060;-85
2022/10/03 08:57:44;;;;;;;21.55;9.40;;;;;;;15.06;64.65;100213.88;5170858;28;20088;-86
2022/10/03 09:00:46;;;;;;;19.85;9.48;;;;;;;15.07;64.35;100219.09;5159940;28;20469;-86
2022/10/03 09:03:59;;;;;;;18.35;8.50;;;;;;;15.25;64.60;100212.00;5191022;28;20056;-84
2022/10/03 09:07:17;;;;;;;19.45;9.48;;;;;;;15.13;65.97;100207.84;5147903;28;20057;-85
2022/10/03 09:10:34;;;;;;;23.42;8.73;;;;;;;15.15;64.29;100183.63;5154665;28;20417;-85
2022/10/03 09:13:30;;;;;;;21.30;8.77;;;;;;;15.06;64.83;100201.34;5162434;28;20054;-83
2022/10/03 09:16:40;;;;;;;21.38;8.80;;;;;;;14.76;64.69;100170.34;5161773;28;20419;-84
2022/10/03 09:19:47;;;;;;;22.52;9.00;;;;;;;15.20;65.09;100202.75;5152588;28;20084;-84
2022/10/03 09:22:53;;;;;;;23.42;9.60;;;;;;;15.38;63.24;100203.69;5161096;28;20120;-82
2022/10/03 09:26:27;;;;;;;18.75;8.98;;;;;;;15.01;64.37;100196.44;5151426;28;20056;-86
2022/10/03 09:29:50;;;;;;;21.75;9.45;;;;;;;14.76;66.88;100189.84;5150474;28;20552;-83
2022/10/03 09:32:55;;;;;;;16.67;8.82;;;;;;;15.06;67.00;100203.19;5166856;28;20050;-84
2022/10/03 09:35:49;;;;;;;18.17;8.88;;;;;;;15.20;66.02;100203.59;5163018;28;20046;-85
2022/10/03 09:38:43;;;;;;;;;;;;;;;15.29;63.53;100201.88;5182310;28;20097;-83
2022/10/03 09:42:11;;;;;;;20.08;7.13;;;;;;;15.13;64.22;100193.59;5159761;28;19956;-82
2022/10/03 09:45:29;;;;;;;22.73;8.10;;;;;;;15.40;64.68;100196.38;5158204;28;20061;-82
2022/10/03 09:48:42;;;;;;;19.88;8.23;;;;;;;15.23;63.41;100199.78;5160432;28;20811;-84
2022/10/03 09:51:42;;;;;;;18.25;7.82;;;;;;;15.06;64.61;100163.97;5175869;28;20116;-86
2022/10/03 09:54:48;;;;;;;21.52;8.50;;;;;;;15.41;64.53;100203.38;5160066;28;20046;-83
2022/10/03 09:57:57;;;;;;;23.30;7.72;;;;;;;15.42;63.51;100201.56;5167922;28;20428;-86
2022/10/03 10:01:19;;;;;;;19.25;7.10;;;;;;;15.37;64.67;100204.69;5154320;28;20119;-84
2022/10/03 10:04:32;;;;;;;16.70;6.85;;;;;;;14.98;62.79;100113.09;5154687;28;20607;-86
2022/10/03 10:08:15;;;;;;;21.92;8.40;;;;;;;15.31;63.80;100127.75;5160801;28;20045;-85
2022/10/03 10:11:16;;;;;;;20.75;7.63;;;;;;;15.68;63.18;100177.72;5175459;28;20720;-87
2022/10/03 10:14:35;;;;;;;13.75;6.70;;;;;;;15.66;64.13;100198.38;5164487;28;20072;-88
2022/10/03 10:17:50;;;;;;;19.33;6.57;;;;;;;15.83;62.30;100216.38;5158897;28;20053;-88
2022/10/03 10:21:22;;;;;;;16.55;5.90;;;;;;;15.54;62.43;100202.22;5149925;28;20065;-88
2022/10/03 10:24:16;;;;;;;18.50;6.30;;;;;;;15.82;61.69;100214.66;5147526;28;20108;-87
2022/10/03 10:27:43;;;;;;;21.13;6.18;;;;;;;16.12;61.28;100218.03;5149226;28;20058;-86
2022/10/03 10:30:54;;;;;;;16.58;5.50;;;;;;;15.60;60.73;100185.63;5164425;28;20161;-86
2022/10/03 10:34:00;;;;;;;15.15;4.60;;;;;;;15.48;61.09;100215.19;5183345;28;20205;-86
2022/10/03 10:37:29;;;;;;;11.43;4.53;;;;;;;15.48;61.00;100214.34;5166278;28;20144;-86
2022/10/03 10:41:02;;;;;;;17.90;4.75;;;;;;;15.43;61.36;100216.59;5175303;28;20783;-86
2022/10/03 10:44:20;;;;;;;13.63;5.32;;;;;;;15.97;61.96;100221.22;5179583;28;20054;-84
2022/10/03 10:47:55;;;;;;;18.52;4.90;;;;;;;15.84;61.06;100193.13;5163861;28;20049;-86
2022/10/03 10:51:20;;;;;;;9.60;4.07;;;;;;;16.29;60.13;100217.25;5154802;28;20061;-85
2022/10/03 10:54:41;;;;;;;17.50;4.20;;;;;;;16.82;57.98;100213.78;5162806;28;20060;-84
2022/10/03 10:57:39;;;;;;;14.02;4.38;;;;;;;17.29;58.27;100208.09;5160258;28;20562;-84
2022/10/03 11:00:57;;;;;;;17.55;4.60;;;;;;;17.48;59.13;100212.41;5160578;28;20657;-84
2022/10/03 11:04:25;;;;;;;15.73;4.10;;;;;;;17.87;55.92;100197.69;5180118;28;20050;-85
2022/10/03 11:07:58;;;;;;;7.72;3.40;;;;;;;17.61;59.01;100204.78;5146513;28;20053;-86
2022/10/03 11:11:10;;;;;;;8.02;3.20;;;;;;;17.77;53.78;100201.34;5144079;28;20560;-85
2022/10/03 11:14:38;;;;;;;12.55;3.10;;;;;;;17.98;55.61;100195.56;5151556;28;20146;-85
2022/10/03 11:17:31;;;;;;;12.93;5.18;;;;;;;18.23;58.31;100191.09;5149798;28;20109;-85
2022/10/03 11:20:56;;;;;;;11.32;3.30;;;;;;;18.44;55.19;100179.06;5163875;28;20184;-84
2022/10/03 11:24:13;;;;;;;13.82;3.55;;;;;;;18.65;51.88;100175.91;5159767;28;20186;-84
2022/10/03 11:27:28;;;;;;;13.68;3.38;;;;;;;18.58;53.47;100175.72;5157138;28;20049;-84
2022/10/03 11:30:28;;;;;;;12.63;3.20;;;;;;;18.12;51.05;100153.84;5154248;28;20051;-85
2022/10/03 11:33:50;;;;;;;15.93;4.32;;;;;;;18.13;53.28;100171.63;5167275;28;20069;-84
2022/10/03 11:37:12;;;;;;;17.30;3.80;;;;;;;17.59;56.81;100173.75;5149772;28;20128;-84
2022/10/03 11:40:30;;;;;;;9.77;3.00;;;;;;;17.43;53.37;100173.66;5164946;28;20199;-86
2022/10/03 11:43:44;;;;;;;15.20;3.80;;;;;;;16.98;55.01;100190.78;5170158;28;20113;-85
2022/10/03 11:46:56;;;;;;;11.82;2.72;;;;;;;17.13;52.05;100160.56;5151606;28;20057;-87
2022/10/03 11:50:22;;;;;;;10.52;3.92;;;;;;;17.49;54.37;100186.44;5155346;28;20135;-84
2022/10/03 11:53:15;;;;;;;13.15;3.28;;;;;;;17.68;53.42;100185.34;5153877;28;20109;-85
2022/10/03 11:56:18;;;;;;;9.95;3.10;;;;;;;18.11;53.10;100164.72;5153840;28;20046;-85
2022/10/03 11:59:10;;;;;;;11.55;3.20;;;;;;;18.60;55.01;100172.88;5155813;28;20159;-84
2022/10/03 12:02:33;;;;;;;11.82;3.00;;;;;;;18.21;54.25;100166.28;5157375;28;20112;-85
2022/10/03 12:05:32;;;;;;;8.75;3.28;;;;;;;18.95;53.91;100163.66;5162001;28;20131;-85
2022/10/03 12:12:13;;;;;;;9.27;2.90;;;;;;;17.98;52.90;100151.78;5162683;28;20058;-85
2022/10/03 12:15:41;;;;;;;12.80;2.90;;;;;;;17.31;52.07;100165.03;5161314;28;20184;-85
2022/10/03 12:18:41;;;;;;;12.02;2.85;;;;;;;17.55;52.49;100169.72;5151067;28;20135;-85
2022/10/03 12:21:49;;;;;;;12.07;2.83;;;;;;;17.51;53.70;100161.13;5158207;28;20057;-85
2022/10/03 12:24:46;;;;;;;7.38;3.60;;;;;;;17.58;53.44;100150.59;5163784;28;20058;-85
2022/10/03 12:27:53;;;;;;;13.98;3.65;;;;;;;17.32;52.88;100140.75;5184003;28;20046;-85
2022/10/03 12:31:07;;;;;;;11.52;3.05;;;;;;;17.34;54.13;100143.28;5168735;28;20053;-86
2022/10/03 12:34:05;;;;;;;7.82;3.35;;;;;;;17.36;54.55;100138.59;5174857;28;20129;-85
2022/10/03 12:37:39;;;;;;;13.88;3.38;;;;;;;17.20;54.71;100146.56;5168691;28;20056;-85
2022/10/03 12:40:36;;;;;;;8.00;3.30;;;;;;;16.73;52.80;100128.13;5150837;28;20062;-85
2022/10/03 12:43:43;;;;;;;10.38;2.60;;;;;;;16.98;54.41;100137.19;5158230;28;20152;-84
2022/10/03 12:46:45;;;;;;;10.65;3.70;;;;;;;16.97;54.68;100128.31;5145969;28;20133;-85
2022/10/03 12:49:38;;;;;;;9.18;3.13;;;;;;;17.02;54.77;100133.19;5147224;28;20058;-85
2022/10/03 12:52:40;;;;;;;7.25;2.60;;;;;;;17.20;53.64;100117.91;5161454;28;20081;-85
2022/10/03 12:55:33;;;;;;;10.05;2.90;;;;;;;17.16;52.48;100107.69;5151005;28;20077;-86
2022/10/03 12:58:43;;;;;;;11.38;3.15;;;;;;;17.38;52.43;100123.19;5171395;28;20161;-86
2022/10/03 13:01:39;;;;;;;11.77;3.40;;;;;;;17.20;53.66;100123.25;5172919;28;20126;-86
2022/10/03 13:05:00;;;;;;;9.63;3.45;;;;;;;17.67;53.28;100128.16;5167278;28;20125;-85
2022/10/03 13:07:56;;;;;;;15.68;3.83;;;;;;;17.39;54.30;100103.44;5161635;28;20662;-84
2022/10/03 13:10:52;;;;;;;9.23;2.90;;;;;;;17.56;51.29;100112.38;5164246;28;20485;-85
2022/10/03 13:14:17;;;;;;;8.07;2.90;;;;;;;17.01;52.21;100123.47;5150124;28;20620;-85
2022/10/03 13:17:28;;;;;;;15.50;3.47;;;;;;;17.19;53.49;100124.28;5144598;28;20140;-85
2022/10/03 13:20:38;;;;;;;8.30;3.05;;;;;;;17.51;54.95;100112.84;5159761;28;20519;-86
2022/10/03 13:23:41;;;;;;;4.45;2.35;;;;;;;17.38;53.85;100099.06;5162142;28;20133;-85
2022/10/03 13:26:43;;;;;;;6.77;2.83;;;;;;;17.28;54.04;100099.16;5162112;28;20050;-85
2022/10/03 13:29:43;;;;;;;13.57;2.50;;;;;;;17.40;49.54;100110.47;5162260;28;20049;-85
2022/10/03 13:32:41;;;;;;;7.25;1.73;;;;;;;17.35;49.02;100100.22;5163635;28;20488;-85
2022/10/03 13:35:58;;;;;;;9.30;2.50;;;;;;;17.44;49.90;100101.09;5179041;28;20042;-85
2022/10/03 13:39:10;;;;;;;8.68;2.08;;;;;;;17.52;49.77;100103.81;5155247;28;20465;-86
2022/10/03 13:42:03;;;;;;;4.10;1.80;;;;;;;17.51;50.33;100102.13;5167653;28;20204;-86
2022/10/03 13:44:59;;;;;;;6.75;2.05;;;;;;;17.44;48.83;100084.16;5164816;28;20050;-83
2022/10/03 13:47:54;;;;;;;7.63;2.10;;;;;;;17.42;50.49;100086.16;5147649;28;20068;-83
2022/10/03 13:50:54;;;;;;;9.68;2.00;;;;;;;17.24;49.00;100097.81;5178175;28;20112;-83
2022/10/03 13:54:00;;;;;;;5.22;2.92;;;;;;;17.16;50.59;100097.78;5167378;28;20053;-84
2022/10/03 13:57:01;;;;;;;6.88;2.22;;;;;;;17.05;51.90;100069.44;5161500;28;20120;-84
2022/10/03 14:00:07;;;;;;;5.53;2.45;;;;;;;17.36;52.23;100104.59;5148764;28;20543;-85
2022/10/03 14:03:19;;;;;;;7.70;2.50;;;;;;;17.30;50.54;100094.50;5161485;28;20077;-85
2022/10/03 14:06:30;;;;;;;5.88;2.20;;;;;;;17.36;52.41;100093.03;5142156;28;20140;-84
2022/10/03 14:09:32;;;;;;;6.60;2.22;;;;;;;17.44;52.43;100101.09;5148061;28;20046;-85
2022/10/03 14:12:46;;;;;;;6.53;2.00;;;;;;;17.34;52.21;100077.09;5159045;28;20057;-85
2022/10/03 14:15:51;;;;;;;7.00;2.10;;;;;;;17.27;51.04;100089.47;5163692;28;20530;-84
2022/10/03 14:18:50;;;;;;;9.50;2.90;;;;;;;16.93;53.55;100080.56;5151740;28;20061;-84
2022/10/03 14:22:03;;;;;;;10.20;3.10;;;;;;;17.37;52.81;100084.81;5177767;28;20054;-84
2022/10/03 14:25:16;;;;;;;7.93;2.70;;;;;;;17.37;52.10;100087.50;5152730;28;20112;-83
2022/10/03 14:28:18;;;;;;;9.93;2.60;;;;;;;17.46;52.41;100082.19;5159516;28;20160;-83
2022/10/03 14:31:16;;;;;;;11.18;2.33;;;;;;;17.36;52.81;100075.09;5156214;28;20057;-82
2022/10/03 14:34:54;;;;;;;8.45;2.85;;;;;;;16.93;51.78;100069.84;5165086;28;20085;-84
2022/10/03 14:38:02;;;;;;;10.55;2.45;;;;;;;17.03;50.35;100063.38;5121830;28;20057;-83
2022/10/03 14:41:04;;;;;;;6.95;2.40;;;;;;;16.96;53.25;100065.03;5152107;28;20064;-84
2022/10/03 14:43:58;;;;;;;9.57;2.97;;;;;;;17.29;52.47;100049.09;5159944;28;20054;-84
2022/10/03 14:47:10;;;;;;;7.78;2.55;;;;;;;17.13;51.93;100041.81;5150292;28;20060;-84